This is the latest recevied weather packets stored in our database for station/object OH2EGI-2. If no packets are shown the sender has not sent any weather packets the latest 10 day(s).
| Time | Temp. | Humidity | Pressure | Rain* | Wind** | Luminosity | Snow |
|---|---|---|---|---|---|---|---|
| 1777570615 | 12.78° C | 59% | 1011.9 hPa | 0 mm | - | - | - |
| 1777570315 | 12.78° C | 58% | 1012 hPa | 0 mm | - | - | - |
| 1777570015 | 13.33° C | 58% | 1011.9 hPa | 0 mm | - | - | - |
| 1777569715 | 13.33° C | 58% | 1011.9 hPa | 0 mm | - | - | - |
| 1777569415 | 13.33° C | 57% | 1012 hPa | 0 mm | - | - | - |
| 1777569115 | 13.89° C | 56% | 1011.8 hPa | 0 mm | - | - | - |
| 1777568815 | 13.89° C | 56% | 1011.8 hPa | 0 mm | - | - | - |
| 1777568515 | 13.89° C | 55% | 1011.9 hPa | 0 mm | - | - | - |
| 1777568215 | 14.44° C | 55% | 1011.9 hPa | 0 mm | - | - | - |
| 1777567915 | 14.44° C | 54% | 1011.9 hPa | 0 mm | - | - | - |
| 1777567615 | 14.44° C | 53% | 1012 hPa | 0 mm | - | - | - |
| 1777567315 | 15° C | 52% | 1011.9 hPa | 0 mm | - | - | - |
| 1777567015 | 15.56° C | 51% | 1012 hPa | 0 mm | - | - | - |
| 1777566715 | 16.67° C | 49% | 1011.9 hPa | 0 mm | - | - | - |
| 1777566415 | 17.22° C | 47% | 1011.9 hPa | 0 mm | - | - | - |
| 1777566115 | 18.33° C | 46% | 1011.9 hPa | 0 mm | - | - | - |
| 1777565815 | 20.56° C | 44% | 1011.9 hPa | 0 mm | - | - | - |
| 1777565515 | 20.56° C | 44% | 1011.7 hPa | 0 mm | - | - | - |
| 1777565215 | 20° C | 46% | 1011.7 hPa | 0 mm | - | - | - |
| 1777564915 | 20° C | 46% | 1011.7 hPa | 0 mm | - | - | - |
| 1777564616 | 20° C | 48% | 1011.6 hPa | 0 mm | - | - | - |
| 1777564316 | 17.78° C | 54% | 1011.7 hPa | 0 mm | - | - | - |
| 1777564016 | 15.56° C | 55% | 1011.7 hPa | 0 mm | - | - | - |
| 1777563715 | 15° C | 56% | 1011.8 hPa | 0 mm | - | - | - |
| 1777563416 | 14.44° C | 56% | 1011.9 hPa | 0 mm | - | - | - |
* Rain latest hour (hover to see other rain measurements)
** Current wind speed in m/s (hover to see current wind gust speed)